createdAt,value
2022-08-28T00:00:41.736Z,75.70
2022-08-28T00:03:09.511Z,64.50
2022-08-28T00:05:36.603Z,64.50
2022-08-28T00:08:03.907Z,64.50
2022-08-28T00:10:31.034Z,64.50
2022-08-28T00:12:59.370Z,64.50
2022-08-28T00:15:31.231Z,64.50
2022-08-28T00:17:59.378Z,64.50
2022-08-28T00:20:27.459Z,64.50
2022-08-28T00:22:55.607Z,64.50
2022-08-28T00:25:24.742Z,64.50
2022-08-28T00:27:53.101Z,64.50
2022-08-28T00:30:35.657Z,64.50
2022-08-28T00:33:25.156Z,64.50
2022-08-28T00:35:52.571Z,64.50
2022-08-28T00:38:21.099Z,64.50
2022-08-28T00:40:51.509Z,64.50
2022-08-28T00:43:25.788Z,64.50
2022-08-28T00:45:53.344Z,64.50
2022-08-28T00:48:20.128Z,64.50
2022-08-28T00:51:05.229Z,64.50
2022-08-28T00:53:33.211Z,64.50
2022-08-28T00:56:04.107Z,64.50
2022-08-28T00:58:37.684Z,64.50
2022-08-28T01:01:04.561Z,64.50
2022-08-28T01:03:31.587Z,64.50
2022-08-28T01:05:58.651Z,64.50
2022-08-28T01:08:25.515Z,64.50
2022-08-28T01:11:00.011Z,64.50
2022-08-28T01:13:27.925Z,64.50
2022-08-28T01:15:55.836Z,64.50
2022-08-28T01:18:23.219Z,64.50
2022-08-28T01:21:20.438Z,64.50
2022-08-28T01:24:11.753Z,64.50
2022-08-28T01:26:38.565Z,64.50
2022-08-28T01:29:07.212Z,64.50
2022-08-28T01:31:34.619Z,64.50
2022-08-28T01:34:01.738Z,64.50
2022-08-28T01:36:30.417Z,64.50
2022-08-28T01:39:08.282Z,64.50
2022-08-28T01:41:39.037Z,64.50
2022-08-28T01:44:06.201Z,64.50
2022-08-28T01:46:33.140Z,64.50
2022-08-28T01:49:00.429Z,64.50
2022-08-28T01:51:27.625Z,64.50
2022-08-28T01:53:54.453Z,64.50
2022-08-28T01:56:21.571Z,64.50
2022-08-28T01:58:48.416Z,64.60
2022-08-28T02:01:20.564Z,64.50
2022-08-28T02:03:48.783Z,64.50
2022-08-28T02:06:17.793Z,65.00
2022-08-28T02:08:46.680Z,64.50
2022-08-28T02:11:13.610Z,64.50
2022-08-28T02:13:40.823Z,64.50
2022-08-28T02:16:09.660Z,64.50
2022-08-28T02:18:37.925Z,64.50
2022-08-28T02:21:05.796Z,64.50
2022-08-28T02:23:32.671Z,64.50
2022-08-28T02:25:59.793Z,64.50
2022-08-28T02:28:26.629Z,64.60
2022-08-28T02:30:53.423Z,64.50
2022-08-28T02:33:20.330Z,64.50
2022-08-28T02:35:47.170Z,64.50
2022-08-28T02:38:14.163Z,64.50
2022-08-28T02:40:41.405Z,64.50
2022-08-28T02:43:08.416Z,64.50
2022-08-28T02:45:35.588Z,64.50
2022-08-28T02:48:02.819Z,64.50
2022-08-28T02:50:31.080Z,64.50
2022-08-28T02:52:58.345Z,64.50
2022-08-28T02:55:26.051Z,64.50
2022-08-28T02:57:54.622Z,76.10
2022-08-28T03:00:24.888Z,64.50
2022-08-28T03:02:52.674Z,64.50
2022-08-28T03:05:22.945Z,64.50
2022-08-28T03:07:53.253Z,64.50
2022-08-28T03:10:21.662Z,64.50
2022-08-28T03:12:48.500Z,64.50
2022-08-28T03:15:15.315Z,64.50
2022-08-28T03:17:42.135Z,64.50
2022-08-28T03:20:10.705Z,64.50
2022-08-28T03:22:55.876Z,64.50
2022-08-28T03:25:23.230Z,64.50
2022-08-28T03:27:50.559Z,64.50
2022-08-28T03:30:17.713Z,64.50
2022-08-28T03:32:44.920Z,64.50
2022-08-28T03:35:12.058Z,64.50
2022-08-28T03:37:39.243Z,64.50
2022-08-28T03:40:07.813Z,64.50
2022-08-28T03:42:35.139Z,64.50
2022-08-28T03:45:02.172Z,64.60
2022-08-28T03:47:29.658Z,64.60
2022-08-28T03:49:58.122Z,64.50
2022-08-28T03:52:25.187Z,64.50
2022-08-28T03:54:52.746Z,64.50
2022-08-28T03:57:21.989Z,64.50
2022-08-28T03:59:50.472Z,64.50
2022-08-28T04:02:19.344Z,64.60
2022-08-28T04:04:47.645Z,64.50
2022-08-28T04:07:15.100Z,64.50
2022-08-28T04:09:41.867Z,64.50
2022-08-28T04:12:09.572Z,64.60
2022-08-28T04:14:36.829Z,64.50
2022-08-28T04:17:04.498Z,64.50
2022-08-28T04:19:31.475Z,64.50
2022-08-28T04:21:58.245Z,64.60
2022-08-28T04:24:25.081Z,64.50
2022-08-28T04:26:51.849Z,64.50
2022-08-28T04:29:18.624Z,64.50
2022-08-28T04:31:45.519Z,64.50
2022-08-28T04:34:12.371Z,64.50
2022-08-28T04:36:39.280Z,64.50
2022-08-28T04:39:08.665Z,64.50
2022-08-28T04:41:37.540Z,64.50
2022-08-28T04:44:06.164Z,64.50
2022-08-28T04:46:33.301Z,64.60
2022-08-28T04:49:00.671Z,64.50
2022-08-28T04:51:28.657Z,64.50
2022-08-28T04:53:55.798Z,64.50
2022-08-28T04:56:22.735Z,64.50
2022-08-28T04:58:49.671Z,64.50
2022-08-28T05:01:24.403Z,64.70
2022-08-28T05:03:55.671Z,64.60
2022-08-28T05:06:24.749Z,64.50
2022-08-28T05:08:51.539Z,64.60
2022-08-28T05:11:32.722Z,64.60
2022-08-28T05:14:06.721Z,64.50
2022-08-28T05:16:40.185Z,64.60
2022-08-28T05:19:07.039Z,64.50
2022-08-28T05:21:33.817Z,64.60
2022-08-28T05:24:00.667Z,64.60
2022-08-28T05:26:29.947Z,64.60
2022-08-28T05:28:58.120Z,64.60
2022-08-28T05:31:26.428Z,64.50
2022-08-28T05:33:53.942Z,64.60
2022-08-28T05:36:22.986Z,64.60
2022-08-28T05:38:56.497Z,64.50
2022-08-28T05:41:25.994Z,64.50
2022-08-28T05:43:54.017Z,64.50
2022-08-28T05:46:23.157Z,64.50
2022-08-28T05:48:50.084Z,64.60
2022-08-28T05:51:22.369Z,64.50
2022-08-28T05:53:50.382Z,64.60
2022-08-28T05:56:21.260Z,64.50
2022-08-28T05:58:48.180Z,64.60
2022-08-28T06:01:28.216Z,64.50
2022-08-28T06:04:08.554Z,76.90
2022-08-28T06:06:38.300Z,64.50
2022-08-28T06:09:12.334Z,64.50
2022-08-28T06:11:44.587Z,64.50
2022-08-28T06:14:13.650Z,64.50
2022-08-28T06:16:45.537Z,64.50
2022-08-28T06:19:13.349Z,64.50
2022-08-28T06:21:41.525Z,64.50
2022-08-28T06:24:10.032Z,64.50
2022-08-28T06:26:37.483Z,64.50
2022-08-28T06:29:07.838Z,64.50
2022-08-28T06:31:34.925Z,64.50
2022-08-28T06:34:02.051Z,64.40
2022-08-28T06:36:31.498Z,64.50
2022-08-28T06:38:59.992Z,64.40
2022-08-28T06:41:27.755Z,64.50
2022-08-28T06:43:55.204Z,64.50
2022-08-28T06:46:22.551Z,64.50
2022-08-28T06:48:49.339Z,64.50
2022-08-28T06:51:16.743Z,64.50
2022-08-28T06:53:44.703Z,64.50
2022-08-28T06:56:25.504Z,64.50
2022-08-28T06:58:55.159Z,64.50
2022-08-28T07:01:31.301Z,64.50
2022-08-28T07:04:01.629Z,64.40
2022-08-28T07:06:32.314Z,64.40
2022-08-28T07:08:59.104Z,64.40
2022-08-28T07:11:29.161Z,64.50
2022-08-28T07:13:57.311Z,64.40
2022-08-28T07:16:32.070Z,64.50
2022-08-28T07:18:59.562Z,64.50
2022-08-28T07:21:27.010Z,64.40
2022-08-28T07:23:55.207Z,64.50
2022-08-28T07:26:23.731Z,64.40
2022-08-28T07:28:59.511Z,64.40
2022-08-28T07:31:43.988Z,64.50
2022-08-28T07:34:11.650Z,64.40
2022-08-28T07:36:39.207Z,64.40
2022-08-28T07:39:06.943Z,64.40
2022-08-28T07:41:39.171Z,82.00
2022-08-28T07:44:25.491Z,64.40
2022-08-28T07:47:01.148Z,64.50
2022-08-28T07:49:27.948Z,64.40
2022-08-28T07:51:54.826Z,64.40
2022-08-28T07:54:23.337Z,64.40
2022-08-28T07:56:50.939Z,64.40
2022-08-28T07:59:19.245Z,64.40
2022-08-28T08:01:48.298Z,64.40
2022-08-28T08:04:17.515Z,64.40
2022-08-28T08:06:44.968Z,64.40
2022-08-28T08:09:16.439Z,64.30
2022-08-28T08:11:44.070Z,64.30
2022-08-28T08:14:11.893Z,64.30
2022-08-28T08:16:42.318Z,64.40
2022-08-28T08:19:10.500Z,64.40
2022-08-28T08:21:38.103Z,64.40
2022-08-28T08:24:05.197Z,64.40
2022-08-28T08:26:33.056Z,64.40
2022-08-28T08:29:00.218Z,64.40
2022-08-28T08:31:29.651Z,64.40
2022-08-28T08:34:01.392Z,64.40
2022-08-28T08:36:29.323Z,64.40
2022-08-28T08:38:59.569Z,64.40
2022-08-28T08:41:34.868Z,64.40
2022-08-28T08:44:04.712Z,64.40
2022-08-28T08:46:53.940Z,64.50
2022-08-28T08:49:29.550Z,64.50
2022-08-28T08:52:11.440Z,64.50
2022-08-28T08:54:59.487Z,64.50
2022-08-28T08:57:27.403Z,64.50
2022-08-28T08:59:54.431Z,64.40
2022-08-28T09:02:31.357Z,64.40
2022-08-28T09:05:10.499Z,64.40
2022-08-28T09:08:02.676Z,64.40
2022-08-28T09:10:39.585Z,64.40
2022-08-28T09:13:26.405Z,64.50
2022-08-28T09:15:53.339Z,64.40
2022-08-28T09:18:33.038Z,64.50
2022-08-28T09:21:00.249Z,64.40
2022-08-28T09:23:30.105Z,64.50
2022-08-28T09:25:57.155Z,64.50
2022-08-28T09:28:38.060Z,64.50
2022-08-28T09:31:13.368Z,64.50
2022-08-28T09:33:44.828Z,64.50
2022-08-28T09:36:29.567Z,64.50
2022-08-28T09:39:08.654Z,64.50
2022-08-28T09:42:04.879Z,64.50
2022-08-28T09:46:59.380Z,64.00
2022-08-28T09:49:30.622Z,64.50
2022-08-28T09:51:59.633Z,64.50
2022-08-28T09:54:40.709Z,64.50
2022-08-28T09:57:08.034Z,64.50
2022-08-28T09:59:34.831Z,64.50
2022-08-28T10:02:22.381Z,64.50
2022-08-28T10:05:10.651Z,64.50
2022-08-28T10:07:51.938Z,64.50
2022-08-28T10:10:40.295Z,64.50
2022-08-28T10:13:14.704Z,64.50
2022-08-28T10:15:49.831Z,64.50
2022-08-28T10:18:48.069Z,64.50
2022-08-28T10:21:23.740Z,64.50
2022-08-28T10:24:26.064Z,64.40
2022-08-28T10:27:32.850Z,64.40
2022-08-28T10:30:12.544Z,64.50
2022-08-28T10:32:48.645Z,64.50
2022-08-28T10:35:21.367Z,64.50
2022-08-28T10:37:54.264Z,64.50
2022-08-28T10:40:36.084Z,64.50
2022-08-28T10:43:11.820Z,64.50
2022-08-28T10:45:39.653Z,64.50
2022-08-28T10:48:27.522Z,64.50
2022-08-28T10:51:02.849Z,64.50
2022-08-28T10:53:38.801Z,64.60
2022-08-28T10:56:15.938Z,64.50
2022-08-28T10:58:43.153Z,64.50
2022-08-28T11:01:19.448Z,64.50
2022-08-28T11:03:49.745Z,64.50
2022-08-28T11:06:28.581Z,64.60
2022-08-28T11:08:58.651Z,64.70
2022-08-28T11:12:01.996Z,64.80
2022-08-28T11:14:47.586Z,65.10
2022-08-28T11:17:27.824Z,65.50
2022-08-28T11:20:24.910Z,64.90
2022-08-28T11:22:53.639Z,65.00
2022-08-28T11:25:32.734Z,64.70
2022-08-28T11:28:22.285Z,64.70
2022-08-28T11:31:10.229Z,64.70
2022-08-28T11:33:48.678Z,64.60
2022-08-28T11:36:19.062Z,64.80
2022-08-28T11:38:46.296Z,64.80
2022-08-28T11:41:32.740Z,64.80
2022-08-28T11:44:28.372Z,64.90
2022-08-28T11:47:15.641Z,64.90
2022-08-28T11:49:44.760Z,65.10
2022-08-28T11:52:23.461Z,65.10
2022-08-28T11:55:08.415Z,64.80
2022-08-28T11:57:50.249Z,64.20
2022-08-28T12:00:38.344Z,63.60
2022-08-28T12:03:23.893Z,62.70
2022-08-28T12:05:54.531Z,62.10
2022-08-28T12:08:44.219Z,61.70
2022-08-28T12:11:31.885Z,61.10
2022-08-28T12:13:59.069Z,60.90
2022-08-28T12:16:26.592Z,60.60
2022-08-28T12:18:53.414Z,60.20
2022-08-28T12:21:25.842Z,60.10
2022-08-28T12:23:59.221Z,60.00
2022-08-28T12:26:39.736Z,59.70
2022-08-28T12:29:16.971Z,59.60
2022-08-28T12:32:14.442Z,59.30
2022-08-28T12:34:50.758Z,59.30
2022-08-28T12:37:51.053Z,59.00
2022-08-28T12:40:22.800Z,58.80
2022-08-28T12:43:09.409Z,58.60
2022-08-28T12:46:02.491Z,58.60
2022-08-28T12:48:51.428Z,58.90
2022-08-28T12:51:33.590Z,59.30
2022-08-28T12:54:03.755Z,59.90
2022-08-28T12:56:34.133Z,60.90
2022-08-28T12:59:32.556Z,61.20
2022-08-28T13:02:09.309Z,61.20
2022-08-28T13:04:45.653Z,61.40
2022-08-28T13:07:16.709Z,61.30
2022-08-28T13:09:51.411Z,61.50
2022-08-28T13:12:56.063Z,61.60
2022-08-28T13:16:04.903Z,61.50
2022-08-28T13:18:45.286Z,61.60
2022-08-28T13:21:17.740Z,61.60
2022-08-28T13:24:23.666Z,61.70
2022-08-28T13:27:02.428Z,61.70
2022-08-28T13:29:29.665Z,61.60
2022-08-28T13:31:59.390Z,61.50
2022-08-28T13:34:29.165Z,61.30
2022-08-28T13:36:59.895Z,60.90
2022-08-28T13:39:30.394Z,60.10
2022-08-28T13:42:01.715Z,58.90
2022-08-28T13:44:48.810Z,57.30
2022-08-28T13:47:16.770Z,57.30
2022-08-28T13:49:43.610Z,57.10
2022-08-28T13:52:11.310Z,56.30
2022-08-28T13:54:39.182Z,55.70
2022-08-28T13:57:10.578Z,55.20
2022-08-28T13:59:37.459Z,54.90
2022-08-28T14:02:26.737Z,54.80
2022-08-28T14:04:53.768Z,55.00
2022-08-28T14:07:20.653Z,55.30
2022-08-28T14:09:47.620Z,55.60
2022-08-28T14:12:15.320Z,56.70
2022-08-28T14:14:43.110Z,56.30
2022-08-28T14:17:10.387Z,56.60
2022-08-28T14:19:37.491Z,56.60
2022-08-28T14:22:04.981Z,56.70
2022-08-28T14:24:32.608Z,57.00
2022-08-28T14:26:59.704Z,57.40
2022-08-28T14:29:26.565Z,57.60
2022-08-28T14:31:53.504Z,57.80
2022-08-28T14:34:22.591Z,58.10
2022-08-28T14:36:50.998Z,58.20
2022-08-28T14:39:18.211Z,58.20
2022-08-28T14:41:46.946Z,58.30
2022-08-28T14:44:13.977Z,58.20
2022-08-28T14:46:44.297Z,58.30
2022-08-28T14:49:13.485Z,58.30
2022-08-28T14:51:42.307Z,58.20
2022-08-28T14:54:11.112Z,58.20
2022-08-28T14:56:38.121Z,58.40
2022-08-28T14:59:06.853Z,58.60
2022-08-28T15:01:40.375Z,58.90
2022-08-28T15:04:11.647Z,59.20
2022-08-28T15:06:39.085Z,59.40
2022-08-28T15:09:05.929Z,59.70
2022-08-28T15:11:32.855Z,59.70
2022-08-28T15:13:59.618Z,59.90
2022-08-28T15:16:30.676Z,59.90
2022-08-28T15:18:59.199Z,60.00
2022-08-28T15:21:38.616Z,60.00
2022-08-28T15:24:07.188Z,60.10
2022-08-28T15:26:34.350Z,60.10
2022-08-28T15:29:04.064Z,60.10
2022-08-28T15:31:33.285Z,60.10
2022-08-28T15:34:13.276Z,60.20
2022-08-28T15:36:42.089Z,60.50
2022-08-28T15:39:27.764Z,60.40
2022-08-28T15:41:54.928Z,60.30
2022-08-28T15:44:21.886Z,60.40
2022-08-28T15:46:55.891Z,60.40
2022-08-28T15:49:24.179Z,60.40
2022-08-28T15:51:51.702Z,60.40
2022-08-28T15:54:19.940Z,60.50
2022-08-28T15:56:46.770Z,60.50
2022-08-28T15:59:17.730Z,60.50
2022-08-28T16:01:44.958Z,60.60
2022-08-28T16:04:13.654Z,60.80
2022-08-28T16:06:41.827Z,60.70
2022-08-28T16:09:09.576Z,60.70
2022-08-28T16:11:37.243Z,60.70
2022-08-28T16:14:06.048Z,60.70
2022-08-28T16:16:33.689Z,60.70
2022-08-28T16:19:00.636Z,60.60
2022-08-28T16:21:28.228Z,60.60
2022-08-28T16:23:55.184Z,60.50
2022-08-28T16:26:22.468Z,60.70
2022-08-28T16:28:49.606Z,60.70
2022-08-28T16:31:19.892Z,60.70
2022-08-28T16:33:48.843Z,60.70
2022-08-28T16:36:18.595Z,60.70
2022-08-28T16:38:47.943Z,60.60
2022-08-28T16:41:18.798Z,60.60
2022-08-28T16:43:46.434Z,60.50
2022-08-28T16:46:19.402Z,60.50
2022-08-28T16:48:46.908Z,60.60
2022-08-28T16:51:15.628Z,60.50
2022-08-28T16:53:42.831Z,60.60
2022-08-28T16:56:15.936Z,60.50
2022-08-28T16:58:43.895Z,60.50
2022-08-28T17:01:12.210Z,60.60
2022-08-28T17:03:40.252Z,60.60
2022-08-28T17:06:23.654Z,60.50
2022-08-28T17:08:56.429Z,60.50
2022-08-28T17:11:24.736Z,60.60
2022-08-28T17:13:51.942Z,60.50
2022-08-28T17:16:19.717Z,60.60
2022-08-28T17:18:48.383Z,60.70
2022-08-28T17:21:39.285Z,60.60
2022-08-28T17:24:06.860Z,60.70
2022-08-28T17:26:33.991Z,60.80
2022-08-28T17:29:00.767Z,60.70
2022-08-28T17:31:27.823Z,60.80
2022-08-28T17:33:54.744Z,60.80
2022-08-28T17:36:33.716Z,60.80
2022-08-28T17:39:06.802Z,60.90
2022-08-28T17:41:34.041Z,60.90
2022-08-28T17:44:02.001Z,60.90
2022-08-28T17:46:30.941Z,61.00
2022-08-28T17:49:01.682Z,61.00
2022-08-28T17:51:42.841Z,61.10
2022-08-28T17:54:16.733Z,61.10
2022-08-28T17:56:44.018Z,70.40
2022-08-28T17:59:12.259Z,61.20
2022-08-28T18:01:39.988Z,61.30
2022-08-28T18:04:06.877Z,61.30
2022-08-28T18:06:33.767Z,61.40
2022-08-28T18:09:00.643Z,61.40
2022-08-28T18:11:28.533Z,61.40
2022-08-28T18:13:55.456Z,61.70
2022-08-28T18:16:23.859Z,61.60
2022-08-28T18:18:53.951Z,61.70
2022-08-28T18:21:21.465Z,61.80
2022-08-28T18:23:48.245Z,61.80
2022-08-28T18:26:17.515Z,61.90
2022-08-28T18:28:44.339Z,61.80
2022-08-28T18:31:11.253Z,61.90
2022-08-28T18:33:38.385Z,62.00
2022-08-28T18:36:10.527Z,62.00
2022-08-28T18:38:37.444Z,62.00
2022-08-28T18:41:05.771Z,62.00
2022-08-28T18:43:32.899Z,62.00
2022-08-28T18:46:01.576Z,62.10
2022-08-28T18:48:29.237Z,62.10
2022-08-28T18:50:56.021Z,62.10
2022-08-28T18:53:23.886Z,62.10
2022-08-28T18:55:52.810Z,62.30
2022-08-28T18:58:22.036Z,62.30
2022-08-28T19:00:49.468Z,62.30
2022-08-28T19:03:16.276Z,62.40
2022-08-28T19:05:43.100Z,62.30
2022-08-28T19:08:10.001Z,62.40
2022-08-28T19:10:38.224Z,62.40
2022-08-28T19:13:06.721Z,62.60
2022-08-28T19:15:35.678Z,62.50
2022-08-28T19:18:03.297Z,62.70
2022-08-28T19:20:31.207Z,62.70
2022-08-28T19:22:58.433Z,62.70
2022-08-28T19:25:29.103Z,62.80
2022-08-28T19:28:01.578Z,62.80
2022-08-28T19:30:32.980Z,62.90
2022-08-28T19:33:01.048Z,63.00
2022-08-28T19:35:28.416Z,63.00
2022-08-28T19:37:55.698Z,63.10
2022-08-28T19:40:23.206Z,63.10
2022-08-28T19:42:50.374Z,63.20
2022-08-28T19:45:17.928Z,63.30
2022-08-28T19:47:44.942Z,63.30
2022-08-28T19:50:13.947Z,63.30
2022-08-28T19:52:41.599Z,63.20
2022-08-28T19:55:08.700Z,63.20
2022-08-28T19:57:35.704Z,63.10
2022-08-28T20:00:04.445Z,63.00
2022-08-28T20:02:31.694Z,63.00
2022-08-28T20:04:59.469Z,63.10
2022-08-28T20:07:26.309Z,63.00
2022-08-28T20:09:53.139Z,63.00
2022-08-28T20:12:20.168Z,63.00
2022-08-28T20:14:47.371Z,63.00
2022-08-28T20:17:14.198Z,63.00
2022-08-28T20:19:41.388Z,63.10
2022-08-28T20:22:08.487Z,63.00
2022-08-28T20:24:35.312Z,63.10
2022-08-28T20:27:02.499Z,63.10
2022-08-28T20:29:29.396Z,63.10
2022-08-28T20:31:56.198Z,63.10
2022-08-28T20:34:23.493Z,63.10
2022-08-28T20:36:50.904Z,63.10
2022-08-28T20:39:18.516Z,63.10
2022-08-28T20:41:46.134Z,63.10
2022-08-28T20:44:16.180Z,63.10
2022-08-28T20:46:43.841Z,63.10
2022-08-28T20:49:16.347Z,63.10
2022-08-28T20:51:54.420Z,63.20
2022-08-28T20:54:32.395Z,63.10
2022-08-28T20:57:02.468Z,63.20
2022-08-28T20:59:39.205Z,63.20
2022-08-28T21:02:13.137Z,63.20
2022-08-28T21:04:41.810Z,63.30
2022-08-28T21:07:09.439Z,63.30
2022-08-28T21:10:04.607Z,63.30
2022-08-28T21:12:24.717Z,63.30
2022-08-28T21:14:52.936Z,63.30
2022-08-28T21:17:29.949Z,63.20
2022-08-28T21:20:00.278Z,63.20
2022-08-28T21:22:28.960Z,63.20
2022-08-28T21:24:55.851Z,63.20
2022-08-28T21:27:22.703Z,63.20
2022-08-28T21:29:49.472Z,63.30
2022-08-28T21:32:17.059Z,63.30
2022-08-28T21:34:43.848Z,63.30
2022-08-28T21:37:10.810Z,63.30
2022-08-28T21:39:37.626Z,77.70
2022-08-28T21:42:04.512Z,63.30
2022-08-28T21:44:31.371Z,63.30
2022-08-28T21:46:59.190Z,63.30
2022-08-28T21:49:26.059Z,63.30
2022-08-28T21:51:53.051Z,63.30
2022-08-28T21:54:19.932Z,63.20
2022-08-28T21:56:46.752Z,63.30
2022-08-28T21:59:17.401Z,63.30
2022-08-28T22:01:44.346Z,63.30
2022-08-28T22:04:11.673Z,63.30
2022-08-28T22:06:39.965Z,63.30
2022-08-28T22:09:08.695Z,63.30
2022-08-28T22:11:35.849Z,77.10
2022-08-28T22:14:02.870Z,63.30
2022-08-28T22:16:29.757Z,63.40
2022-08-28T22:18:56.697Z,63.40
2022-08-28T22:21:45.598Z,63.40
2022-08-28T22:24:13.313Z,63.40
2022-08-28T22:26:42.095Z,63.40
2022-08-28T22:29:09.787Z,78.20
2022-08-28T22:31:38.300Z,63.90
2022-08-28T22:34:12.829Z,63.40
2022-08-28T22:36:39.905Z,63.40
2022-08-28T22:39:07.078Z,63.50
2022-08-28T22:41:34.006Z,63.50
2022-08-28T22:44:01.058Z,63.40
2022-08-28T22:46:28.240Z,63.40
2022-08-28T22:48:55.140Z,63.40
2022-08-28T22:51:21.986Z,63.50
2022-08-28T22:53:49.260Z,63.50
2022-08-28T22:56:17.516Z,63.50
2022-08-28T22:58:44.760Z,63.50
2022-08-28T23:01:19.914Z,63.50
2022-08-28T23:03:46.848Z,63.50
2022-08-28T23:06:13.975Z,63.60
2022-08-28T23:08:41.022Z,63.60
2022-08-28T23:11:08.558Z,63.60
2022-08-28T23:13:35.604Z,63.50
2022-08-28T23:16:03.526Z,63.50
2022-08-28T23:18:38.166Z,63.60
2022-08-28T23:21:18.806Z,63.50
2022-08-28T23:23:46.298Z,63.60
2022-08-28T23:26:14.449Z,63.60
2022-08-28T23:28:42.140Z,63.70
2022-08-28T23:31:09.752Z,63.60
2022-08-28T23:33:36.611Z,63.60
2022-08-28T23:36:04.035Z,63.70
2022-08-28T23:38:30.953Z,63.60
2022-08-28T23:40:58.011Z,63.60
2022-08-28T23:43:24.877Z,63.70
2022-08-28T23:45:52.112Z,63.70
2022-08-28T23:48:19.086Z,63.70
2022-08-28T23:50:45.916Z,63.60
2022-08-28T23:53:12.893Z,63.60
2022-08-28T23:55:39.813Z,63.70
2022-08-28T23:58:06.665Z,63.60
